sensor_id;sensor_type;location;lat;lon;timestamp;P1;durP1;ratioP1;P2;durP2;ratioP2
938;SDS011;456;53.584;9.968;2024-03-02T00:00:19;5.03;;;4.60;;
938;SDS011;456;53.584;9.968;2024-03-02T00:02:46;4.80;;;4.40;;
938;SDS011;456;53.584;9.968;2024-03-02T00:05:14;5.50;;;5.00;;
938;SDS011;456;53.584;9.968;2024-03-02T00:07:41;5.17;;;4.67;;
938;SDS011;456;53.584;9.968;2024-03-02T00:10:10;4.97;;;4.57;;
938;SDS011;456;53.584;9.968;2024-03-02T00:12:37;6.90;;;6.20;;
938;SDS011;456;53.584;9.968;2024-03-02T00:15:17;6.17;;;5.50;;
938;SDS011;456;53.584;9.968;2024-03-02T00:18:01;6.63;;;5.97;;
938;SDS011;456;53.584;9.968;2024-03-02T00:20:27;5.53;;;5.03;;
938;SDS011;456;53.584;9.968;2024-03-02T00:22:55;6.63;;;6.03;;
938;SDS011;456;53.584;9.968;2024-03-02T00:25:27;6.07;;;5.47;;
938;SDS011;456;53.584;9.968;2024-03-02T00:28:00;5.40;;;4.90;;
938;SDS011;456;53.584;9.968;2024-03-02T00:30:39;5.63;;;5.13;;
938;SDS011;456;53.584;9.968;2024-03-02T00:33:18;5.90;;;5.40;;
938;SDS011;456;53.584;9.968;2024-03-02T00:35:45;5.60;;;5.10;;
938;SDS011;456;53.584;9.968;2024-03-02T00:38:10;5.77;;;5.27;;
938;SDS011;456;53.584;9.968;2024-03-02T00:40:37;5.97;;;5.47;;
938;SDS011;456;53.584;9.968;2024-03-02T00:43:02;6.13;;;5.63;;
938;SDS011;456;53.584;9.968;2024-03-02T00:45:29;5.70;;;5.20;;
938;SDS011;456;53.584;9.968;2024-03-02T00:47:55;5.10;;;4.60;;
938;SDS011;456;53.584;9.968;2024-03-02T00:50:21;5.50;;;5.00;;
938;SDS011;456;53.584;9.968;2024-03-02T00:52:46;6.53;;;5.93;;
938;SDS011;456;53.584;9.968;2024-03-02T00:55:15;6.07;;;5.10;;
938;SDS011;456;53.584;9.968;2024-03-02T00:57:40;5.97;;;5.27;;
938;SDS011;456;53.584;9.968;2024-03-02T01:00:06;5.33;;;4.83;;
938;SDS011;456;53.584;9.968;2024-03-02T01:02:35;5.53;;;4.93;;
938;SDS011;456;53.584;9.968;2024-03-02T01:05:01;5.17;;;4.77;;
938;SDS011;456;53.584;9.968;2024-03-02T01:07:26;6.00;;;5.40;;
938;SDS011;456;53.584;9.968;2024-03-02T01:09:52;5.83;;;5.30;;
938;SDS011;456;53.584;9.968;2024-03-02T01:12:17;5.60;;;5.10;;
938;SDS011;456;53.584;9.968;2024-03-02T01:14:43;6.43;;;5.83;;
938;SDS011;456;53.584;9.968;2024-03-02T01:17:08;5.50;;;5.00;;
938;SDS011;456;53.584;9.968;2024-03-02T01:19:34;6.83;;;5.93;;
938;SDS011;456;53.584;9.968;2024-03-02T01:21:59;6.30;;;5.67;;
938;SDS011;456;53.584;9.968;2024-03-02T01:24:25;5.37;;;4.87;;
938;SDS011;456;53.584;9.968;2024-03-02T01:26:51;5.67;;;5.17;;
938;SDS011;456;53.584;9.968;2024-03-02T01:29:16;5.80;;;5.20;;
938;SDS011;456;53.584;9.968;2024-03-02T01:31:42;5.90;;;5.40;;
938;SDS011;456;53.584;9.968;2024-03-02T01:34:08;6.33;;;5.70;;
938;SDS011;456;53.584;9.968;2024-03-02T01:36:34;5.60;;;5.00;;
938;SDS011;456;53.584;9.968;2024-03-02T01:38:59;6.40;;;5.80;;
938;SDS011;456;53.584;9.968;2024-03-02T01:41:25;6.07;;;5.47;;
938;SDS011;456;53.584;9.968;2024-03-02T01:43:51;6.17;;;5.57;;
938;SDS011;456;53.584;9.968;2024-03-02T01:46:17;6.57;;;5.97;;
938;SDS011;456;53.584;9.968;2024-03-02T01:48:42;5.43;;;4.93;;
938;SDS011;456;53.584;9.968;2024-03-02T01:51:08;6.60;;;4.90;;
938;SDS011;456;53.584;9.968;2024-03-02T01:53:35;6.40;;;5.80;;
938;SDS011;456;53.584;9.968;2024-03-02T01:56:01;6.33;;;5.80;;
938;SDS011;456;53.584;9.968;2024-03-02T01:58:27;5.67;;;5.10;;
938;SDS011;456;53.584;9.968;2024-03-02T02:00:53;6.77;;;6.17;;
938;SDS011;456;53.584;9.968;2024-03-02T02:03:18;6.07;;;5.50;;
938;SDS011;456;53.584;9.968;2024-03-02T02:05:44;5.67;;;5.10;;
938;SDS011;456;53.584;9.968;2024-03-02T02:08:12;5.53;;;5.03;;
938;SDS011;456;53.584;9.968;2024-03-02T02:10:37;5.57;;;5.07;;
938;SDS011;456;53.584;9.968;2024-03-02T02:13:03;5.90;;;5.40;;
938;SDS011;456;53.584;9.968;2024-03-02T02:15:29;6.60;;;5.30;;
938;SDS011;456;53.584;9.968;2024-03-02T02:17:56;6.00;;;5.40;;
938;SDS011;456;53.584;9.968;2024-03-02T02:20:22;5.80;;;5.30;;
938;SDS011;456;53.584;9.968;2024-03-02T02:23:01;5.60;;;4.80;;
938;SDS011;456;53.584;9.968;2024-03-02T02:25:29;5.90;;;5.30;;
938;SDS011;456;53.584;9.968;2024-03-02T02:27:55;6.00;;;5.40;;
938;SDS011;456;53.584;9.968;2024-03-02T02:30:22;5.47;;;4.97;;
938;SDS011;456;53.584;9.968;2024-03-02T02:32:57;5.20;;;4.80;;
938;SDS011;456;53.584;9.968;2024-03-02T02:35:23;6.27;;;5.77;;
938;SDS011;456;53.584;9.968;2024-03-02T02:37:49;5.87;;;5.40;;
938;SDS011;456;53.584;9.968;2024-03-02T02:40:17;6.63;;;5.93;;
938;SDS011;456;53.584;9.968;2024-03-02T02:42:46;5.77;;;5.27;;
938;SDS011;456;53.584;9.968;2024-03-02T02:45:11;5.20;;;4.80;;
938;SDS011;456;53.584;9.968;2024-03-02T02:47:39;5.10;;;4.60;;
938;SDS011;456;53.584;9.968;2024-03-02T02:50:08;7.47;;;6.00;;
938;SDS011;456;53.584;9.968;2024-03-02T02:52:35;6.13;;;5.53;;
938;SDS011;456;53.584;9.968;2024-03-02T02:55:04;7.80;;;5.30;;
938;SDS011;456;53.584;9.968;2024-03-02T02:57:31;6.00;;;5.50;;
938;SDS011;456;53.584;9.968;2024-03-02T03:00:00;5.40;;;4.90;;
938;SDS011;456;53.584;9.968;2024-03-02T03:02:30;5.80;;;5.27;;
938;SDS011;456;53.584;9.968;2024-03-02T03:04:56;6.37;;;5.87;;
938;SDS011;456;53.584;9.968;2024-03-02T03:07:22;6.30;;;5.70;;
938;SDS011;456;53.584;9.968;2024-03-02T03:09:48;5.37;;;4.87;;
938;SDS011;456;53.584;9.968;2024-03-02T03:12:13;6.63;;;6.03;;
938;SDS011;456;53.584;9.968;2024-03-02T03:14:40;5.90;;;5.30;;
938;SDS011;456;53.584;9.968;2024-03-02T03:17:06;5.37;;;4.97;;
938;SDS011;456;53.584;9.968;2024-03-02T03:19:33;6.30;;;5.70;;
938;SDS011;456;53.584;9.968;2024-03-02T03:21:58;5.50;;;5.00;;
938;SDS011;456;53.584;9.968;2024-03-02T03:24:24;5.03;;;4.63;;
938;SDS011;456;53.584;9.968;2024-03-02T03:26:50;6.23;;;5.63;;
938;SDS011;456;53.584;9.968;2024-03-02T03:29:15;6.40;;;5.80;;
938;SDS011;456;53.584;9.968;2024-03-02T03:31:41;6.40;;;5.73;;
938;SDS011;456;53.584;9.968;2024-03-02T03:34:06;6.37;;;5.83;;
938;SDS011;456;53.584;9.968;2024-03-02T03:36:32;5.90;;;5.40;;
938;SDS011;456;53.584;9.968;2024-03-02T03:38:58;6.03;;;5.50;;
938;SDS011;456;53.584;9.968;2024-03-02T03:41:23;5.50;;;5.00;;
938;SDS011;456;53.584;9.968;2024-03-02T03:43:49;5.93;;;5.33;;
938;SDS011;456;53.584;9.968;2024-03-02T03:46:15;6.27;;;5.37;;
938;SDS011;456;53.584;9.968;2024-03-02T03:48:40;5.40;;;4.90;;
938;SDS011;456;53.584;9.968;2024-03-02T03:51:07;5.73;;;5.23;;
938;SDS011;456;53.584;9.968;2024-03-02T03:53:32;5.60;;;5.10;;
938;SDS011;456;53.584;9.968;2024-03-02T03:55:58;6.07;;;5.53;;
938;SDS011;456;53.584;9.968;2024-03-02T03:58:23;6.07;;;5.37;;
938;SDS011;456;53.584;9.968;2024-03-02T04:00:49;6.17;;;5.57;;
938;SDS011;456;53.584;9.968;2024-03-02T04:03:14;6.10;;;5.50;;
938;SDS011;456;53.584;9.968;2024-03-02T04:05:40;8.03;;;6.00;;
938;SDS011;456;53.584;9.968;2024-03-02T04:08:06;6.17;;;5.63;;
938;SDS011;456;53.584;9.968;2024-03-02T04:10:32;6.00;;;5.50;;
938;SDS011;456;53.584;9.968;2024-03-02T04:12:59;6.13;;;5.53;;
938;SDS011;456;53.584;9.968;2024-03-02T04:15:24;5.93;;;5.40;;
938;SDS011;456;53.584;9.968;2024-03-02T04:17:50;6.17;;;5.60;;
938;SDS011;456;53.584;9.968;2024-03-02T04:20:15;6.20;;;5.70;;
938;SDS011;456;53.584;9.968;2024-03-02T04:22:41;5.70;;;5.20;;
938;SDS011;456;53.584;9.968;2024-03-02T04:25:07;6.20;;;5.70;;
938;SDS011;456;53.584;9.968;2024-03-02T04:27:32;5.70;;;5.20;;
938;SDS011;456;53.584;9.968;2024-03-02T04:29:58;6.90;;;6.17;;
938;SDS011;456;53.584;9.968;2024-03-02T04:32:25;7.30;;;6.60;;
938;SDS011;456;53.584;9.968;2024-03-02T04:34:51;6.60;;;5.90;;
938;SDS011;456;53.584;9.968;2024-03-02T04:37:17;7.10;;;6.40;;
938;SDS011;456;53.584;9.968;2024-03-02T04:39:43;5.83;;;5.37;;
938;SDS011;456;53.584;9.968;2024-03-02T04:42:09;7.10;;;6.40;;
938;SDS011;456;53.584;9.968;2024-03-02T04:44:35;7.20;;;5.70;;
938;SDS011;456;53.584;9.968;2024-03-02T04:47:01;6.60;;;5.87;;
938;SDS011;456;53.584;9.968;2024-03-02T04:49:27;5.70;;;5.20;;
938;SDS011;456;53.584;9.968;2024-03-02T04:51:53;6.13;;;5.60;;
938;SDS011;456;53.584;9.968;2024-03-02T04:54:18;6.77;;;6.10;;
938;SDS011;456;53.584;9.968;2024-03-02T04:56:44;7.27;;;5.57;;
938;SDS011;456;53.584;9.968;2024-03-02T04:59:14;7.13;;;6.17;;
938;SDS011;456;53.584;9.968;2024-03-02T05:01:40;6.60;;;5.90;;
938;SDS011;456;53.584;9.968;2024-03-02T05:04:05;6.60;;;6.00;;
938;SDS011;456;53.584;9.968;2024-03-02T05:06:31;6.50;;;6.00;;
938;SDS011;456;53.584;9.968;2024-03-02T05:08:56;6.43;;;5.83;;
938;SDS011;456;53.584;9.968;2024-03-02T05:11:22;6.67;;;6.00;;
938;SDS011;456;53.584;9.968;2024-03-02T05:14:04;6.77;;;6.10;;
938;SDS011;456;53.584;9.968;2024-03-02T05:16:39;7.17;;;6.47;;
938;SDS011;456;53.584;9.968;2024-03-02T05:19:06;7.20;;;6.50;;
938;SDS011;456;53.584;9.968;2024-03-02T05:21:32;6.63;;;6.07;;
938;SDS011;456;53.584;9.968;2024-03-02T05:23:58;6.57;;;6.00;;
938;SDS011;456;53.584;9.968;2024-03-02T05:26:24;6.37;;;5.70;;
938;SDS011;456;53.584;9.968;2024-03-02T05:28:50;7.40;;;6.67;;
938;SDS011;456;53.584;9.968;2024-03-02T05:31:15;7.13;;;6.47;;
938;SDS011;456;53.584;9.968;2024-03-02T05:33:41;6.57;;;5.97;;
938;SDS011;456;53.584;9.968;2024-03-02T05:36:07;7.30;;;6.27;;
938;SDS011;456;53.584;9.968;2024-03-02T05:38:36;6.00;;;5.53;;
938;SDS011;456;53.584;9.968;2024-03-02T05:41:02;7.27;;;6.67;;
938;SDS011;456;53.584;9.968;2024-03-02T05:43:28;7.23;;;6.63;;
938;SDS011;456;53.584;9.968;2024-03-02T05:45:53;7.40;;;6.13;;
938;SDS011;456;53.584;9.968;2024-03-02T05:48:19;7.33;;;6.60;;
938;SDS011;456;53.584;9.968;2024-03-02T05:50:45;7.13;;;6.53;;
938;SDS011;456;53.584;9.968;2024-03-02T05:53:10;7.23;;;6.53;;
938;SDS011;456;53.584;9.968;2024-03-02T05:55:36;6.90;;;6.20;;
938;SDS011;456;53.584;9.968;2024-03-02T05:58:01;6.53;;;5.93;;
938;SDS011;456;53.584;9.968;2024-03-02T06:00:45;6.43;;;5.93;;
938;SDS011;456;53.584;9.968;2024-03-02T06:03:11;6.77;;;6.03;;
938;SDS011;456;53.584;9.968;2024-03-02T06:05:36;8.40;;;7.10;;
938;SDS011;456;53.584;9.968;2024-03-02T06:08:02;7.37;;;6.47;;
938;SDS011;456;53.584;9.968;2024-03-02T06:10:28;6.70;;;6.10;;
938;SDS011;456;53.584;9.968;2024-03-02T06:12:54;8.33;;;6.43;;
938;SDS011;456;53.584;9.968;2024-03-02T06:15:19;7.27;;;6.57;;
938;SDS011;456;53.584;9.968;2024-03-02T06:17:45;7.07;;;6.37;;
938;SDS011;456;53.584;9.968;2024-03-02T06:20:10;6.83;;;6.13;;
938;SDS011;456;53.584;9.968;2024-03-02T06:22:36;7.87;;;7.17;;
938;SDS011;456;53.584;9.968;2024-03-02T06:25:02;6.70;;;6.10;;
938;SDS011;456;53.584;9.968;2024-03-02T06:27:28;8.93;;;6.97;;
938;SDS011;456;53.584;9.968;2024-03-02T06:29:53;8.07;;;6.57;;
938;SDS011;456;53.584;9.968;2024-03-02T06:32:19;6.90;;;6.17;;
938;SDS011;456;53.584;9.968;2024-03-02T06:34:45;7.67;;;6.87;;
938;SDS011;456;53.584;9.968;2024-03-02T06:37:11;6.97;;;6.27;;
938;SDS011;456;53.584;9.968;2024-03-02T06:39:36;8.17;;;7.00;;
938;SDS011;456;53.584;9.968;2024-03-02T06:42:02;6.87;;;6.27;;
938;SDS011;456;53.584;9.968;2024-03-02T06:44:28;5.57;;;5.00;;
938;SDS011;456;53.584;9.968;2024-03-02T06:46:53;6.27;;;5.73;;
938;SDS011;456;53.584;9.968;2024-03-02T06:49:19;6.77;;;6.07;;
938;SDS011;456;53.584;9.968;2024-03-02T06:51:44;6.60;;;6.00;;
938;SDS011;456;53.584;9.968;2024-03-02T06:54:10;6.23;;;5.63;;
938;SDS011;456;53.584;9.968;2024-03-02T06:56:35;6.80;;;5.50;;
938;SDS011;456;53.584;9.968;2024-03-02T06:59:02;6.67;;;5.87;;
938;SDS011;456;53.584;9.968;2024-03-02T07:01:28;5.57;;;5.07;;
938;SDS011;456;53.584;9.968;2024-03-02T07:03:53;6.23;;;5.63;;
938;SDS011;456;53.584;9.968;2024-03-02T07:06:19;6.00;;;5.40;;
938;SDS011;456;53.584;9.968;2024-03-02T07:08:45;6.73;;;5.80;;
938;SDS011;456;53.584;9.968;2024-03-02T07:11:10;5.20;;;4.80;;
938;SDS011;456;53.584;9.968;2024-03-02T07:13:36;6.43;;;5.73;;
938;SDS011;456;53.584;9.968;2024-03-02T07:16:01;6.10;;;5.50;;
938;SDS011;456;53.584;9.968;2024-03-02T07:18:36;6.60;;;5.57;;
938;SDS011;456;53.584;9.968;2024-03-02T07:21:10;6.63;;;5.63;;
938;SDS011;456;53.584;9.968;2024-03-02T07:23:35;5.97;;;5.40;;
938;SDS011;456;53.584;9.968;2024-03-02T07:26:01;6.63;;;5.93;;
938;SDS011;456;53.584;9.968;2024-03-02T07:28:28;6.10;;;5.40;;
938;SDS011;456;53.584;9.968;2024-03-02T07:30:57;7.23;;;5.97;;
938;SDS011;456;53.584;9.968;2024-03-02T07:33:24;6.03;;;5.37;;
938;SDS011;456;53.584;9.968;2024-03-02T07:35:49;5.97;;;5.40;;
938;SDS011;456;53.584;9.968;2024-03-02T07:38:15;6.33;;;5.73;;
938;SDS011;456;53.584;9.968;2024-03-02T07:40:40;7.40;;;6.20;;
938;SDS011;456;53.584;9.968;2024-03-02T07:43:07;5.80;;;5.30;;
938;SDS011;456;53.584;9.968;2024-03-02T07:45:33;5.73;;;5.13;;
938;SDS011;456;53.584;9.968;2024-03-02T07:48:01;6.47;;;5.57;;
938;SDS011;456;53.584;9.968;2024-03-02T07:50:28;5.70;;;5.13;;
938;SDS011;456;53.584;9.968;2024-03-02T07:52:55;5.40;;;4.90;;
938;SDS011;456;53.584;9.968;2024-03-02T07:55:21;5.90;;;5.30;;
938;SDS011;456;53.584;9.968;2024-03-02T07:57:46;7.63;;;5.50;;
938;SDS011;456;53.584;9.968;2024-03-02T08:00:12;5.67;;;5.17;;
938;SDS011;456;53.584;9.968;2024-03-02T08:02:39;7.90;;;5.77;;
938;SDS011;456;53.584;9.968;2024-03-02T08:05:05;5.63;;;5.00;;
938;SDS011;456;53.584;9.968;2024-03-02T08:07:31;5.47;;;4.77;;
938;SDS011;456;53.584;9.968;2024-03-02T08:09:57;6.00;;;5.50;;
938;SDS011;456;53.584;9.968;2024-03-02T08:12:22;4.87;;;4.47;;
938;SDS011;456;53.584;9.968;2024-03-02T08:14:48;5.33;;;4.90;;
938;SDS011;456;53.584;9.968;2024-03-02T08:17:14;4.63;;;4.23;;
938;SDS011;456;53.584;9.968;2024-03-02T08:19:39;5.63;;;5.03;;
938;SDS011;456;53.584;9.968;2024-03-02T08:22:06;5.80;;;4.60;;
938;SDS011;456;53.584;9.968;2024-03-02T08:24:32;5.10;;;4.70;;
938;SDS011;456;53.584;9.968;2024-03-02T08:26:58;5.07;;;4.60;;
938;SDS011;456;53.584;9.968;2024-03-02T08:29:24;4.57;;;4.13;;
938;SDS011;456;53.584;9.968;2024-03-02T08:31:50;4.37;;;3.97;;
938;SDS011;456;53.584;9.968;2024-03-02T08:34:16;4.90;;;4.40;;
938;SDS011;456;53.584;9.968;2024-03-02T08:36:41;5.37;;;4.50;;
938;SDS011;456;53.584;9.968;2024-03-02T08:39:10;5.60;;;5.07;;
938;SDS011;456;53.584;9.968;2024-03-02T08:41:40;5.43;;;4.60;;
938;SDS011;456;53.584;9.968;2024-03-02T08:44:12;5.00;;;4.50;;
938;SDS011;456;53.584;9.968;2024-03-02T08:46:39;6.77;;;4.40;;
938;SDS011;456;53.584;9.968;2024-03-02T08:49:05;4.87;;;4.27;;
938;SDS011;456;53.584;9.968;2024-03-02T08:51:31;5.23;;;4.20;;
938;SDS011;456;53.584;9.968;2024-03-02T08:53:57;5.07;;;4.63;;
938;SDS011;456;53.584;9.968;2024-03-02T08:56:23;4.83;;;4.30;;
938;SDS011;456;53.584;9.968;2024-03-02T08:58:49;5.77;;;5.20;;
938;SDS011;456;53.584;9.968;2024-03-02T09:01:15;6.40;;;5.00;;
938;SDS011;456;53.584;9.968;2024-03-02T09:03:42;4.30;;;3.83;;
938;SDS011;456;53.584;9.968;2024-03-02T09:06:11;4.97;;;4.40;;
938;SDS011;456;53.584;9.968;2024-03-02T09:08:37;4.00;;;3.60;;
938;SDS011;456;53.584;9.968;2024-03-02T09:11:03;5.00;;;4.47;;
938;SDS011;456;53.584;9.968;2024-03-02T09:13:30;4.60;;;4.20;;
938;SDS011;456;53.584;9.968;2024-03-02T09:15:56;6.77;;;4.47;;
938;SDS011;456;53.584;9.968;2024-03-02T09:18:21;4.97;;;4.13;;
938;SDS011;456;53.584;9.968;2024-03-02T09:20:47;5.70;;;4.37;;
938;SDS011;456;53.584;9.968;2024-03-02T09:23:12;4.70;;;4.30;;
938;SDS011;456;53.584;9.968;2024-03-02T09:25:38;4.50;;;4.20;;
938;SDS011;456;53.584;9.968;2024-03-02T09:28:04;4.97;;;4.20;;
938;SDS011;456;53.584;9.968;2024-03-02T09:30:29;4.57;;;4.23;;
938;SDS011;456;53.584;9.968;2024-03-02T09:32:55;4.87;;;4.07;;
938;SDS011;456;53.584;9.968;2024-03-02T09:35:20;6.90;;;3.93;;
938;SDS011;456;53.584;9.968;2024-03-02T09:37:46;4.40;;;4.00;;
938;SDS011;456;53.584;9.968;2024-03-02T09:40:12;4.93;;;4.27;;
938;SDS011;456;53.584;9.968;2024-03-02T09:42:39;3.70;;;3.40;;
938;SDS011;456;53.584;9.968;2024-03-02T09:45:06;4.80;;;4.20;;
938;SDS011;456;53.584;9.968;2024-03-02T09:47:32;4.60;;;4.20;;
938;SDS011;456;53.584;9.968;2024-03-02T09:49:58;4.70;;;4.20;;
938;SDS011;456;53.584;9.968;2024-03-02T09:52:24;5.87;;;4.33;;
938;SDS011;456;53.584;9.968;2024-03-02T09:54:50;4.27;;;3.87;;
938;SDS011;456;53.584;9.968;2024-03-02T09:57:16;5.10;;;4.63;;
938;SDS011;456;53.584;9.968;2024-03-02T09:59:41;5.10;;;4.60;;
938;SDS011;456;53.584;9.968;2024-03-02T10:02:07;5.70;;;4.43;;
938;SDS011;456;53.584;9.968;2024-03-02T10:04:33;4.87;;;4.47;;
938;SDS011;456;53.584;9.968;2024-03-02T10:09:36;5.03;;;4.53;;
938;SDS011;456;53.584;9.968;2024-03-02T10:12:05;5.10;;;4.67;;
938;SDS011;456;53.584;9.968;2024-03-02T10:14:32;5.13;;;4.63;;
938;SDS011;456;53.584;9.968;2024-03-02T10:17:02;6.00;;;4.67;;
938;SDS011;456;53.584;9.968;2024-03-02T10:19:33;5.80;;;5.20;;
938;SDS011;456;53.584;9.968;2024-03-02T10:22:00;4.77;;;4.47;;
938;SDS011;456;53.584;9.968;2024-03-02T10:24:27;5.43;;;5.03;;
938;SDS011;456;53.584;9.968;2024-03-02T10:27:00;6.90;;;6.13;;
938;SDS011;456;53.584;9.968;2024-03-02T10:29:28;6.57;;;5.97;;
938;SDS011;456;53.584;9.968;2024-03-02T10:31:54;7.40;;;5.97;;
938;SDS011;456;53.584;9.968;2024-03-02T10:34:21;6.47;;;5.97;;
938;SDS011;456;53.584;9.968;2024-03-02T10:36:47;7.10;;;6.50;;
938;SDS011;456;53.584;9.968;2024-03-02T10:39:13;6.60;;;6.00;;
938;SDS011;456;53.584;9.968;2024-03-02T10:41:39;6.07;;;5.53;;
938;SDS011;456;53.584;9.968;2024-03-02T10:44:06;6.90;;;6.30;;
938;SDS011;456;53.584;9.968;2024-03-02T10:46:33;8.20;;;7.47;;
938;SDS011;456;53.584;9.968;2024-03-02T10:49:01;7.57;;;6.87;;
938;SDS011;456;53.584;9.968;2024-03-02T10:51:30;7.80;;;7.00;;
938;SDS011;456;53.584;9.968;2024-03-02T10:53:58;8.00;;;7.20;;
938;SDS011;456;53.584;9.968;2024-03-02T10:56:33;7.97;;;7.23;;
938;SDS011;456;53.584;9.968;2024-03-02T10:59:02;8.60;;;7.80;;
938;SDS011;456;53.584;9.968;2024-03-02T11:01:29;8.50;;;7.80;;
938;SDS011;456;53.584;9.968;2024-03-02T11:03:56;9.57;;;8.57;;
938;SDS011;456;53.584;9.968;2024-03-02T11:06:23;9.90;;;8.90;;
938;SDS011;456;53.584;9.968;2024-03-02T11:08:51;10.80;;;9.90;;
938;SDS011;456;53.584;9.968;2024-03-02T11:11:24;12.67;;;11.50;;
938;SDS011;456;53.584;9.968;2024-03-02T11:13:55;11.90;;;10.90;;
938;SDS011;456;53.584;9.968;2024-03-02T11:16:33;12.40;;;11.20;;
938;SDS011;456;53.584;9.968;2024-03-02T11:19:04;13.73;;;12.07;;
938;SDS011;456;53.584;9.968;2024-03-02T11:21:34;12.23;;;11.23;;
938;SDS011;456;53.584;9.968;2024-03-02T11:24:19;12.60;;;11.50;;
938;SDS011;456;53.584;9.968;2024-03-02T11:26:49;14.17;;;12.97;;
938;SDS011;456;53.584;9.968;2024-03-02T11:34:46;13.50;;;12.17;;
938;SDS011;456;53.584;9.968;2024-03-02T11:37:14;15.00;;;13.60;;
938;SDS011;456;53.584;9.968;2024-03-02T11:39:42;13.70;;;12.40;;
938;SDS011;456;53.584;9.968;2024-03-02T11:42:09;12.23;;;11.03;;
938;SDS011;456;53.584;9.968;2024-03-02T11:44:38;13.97;;;12.77;;
938;SDS011;456;53.584;9.968;2024-03-02T11:47:06;13.33;;;12.07;;
938;SDS011;456;53.584;9.968;2024-03-02T11:52:03;13.17;;;11.87;;
938;SDS011;456;53.584;9.968;2024-03-02T11:54:32;13.93;;;12.60;;
938;SDS011;456;53.584;9.968;2024-03-02T11:57:01;13.17;;;11.97;;
938;SDS011;456;53.584;9.968;2024-03-02T11:59:31;14.47;;;13.10;;
938;SDS011;456;53.584;9.968;2024-03-02T12:01:56;13.57;;;12.27;;
938;SDS011;456;53.584;9.968;2024-03-02T12:04:23;12.33;;;11.13;;
938;SDS011;456;53.584;9.968;2024-03-02T12:06:55;13.73;;;12.37;;
938;SDS011;456;53.584;9.968;2024-03-02T12:09:21;12.83;;;11.53;;
938;SDS011;456;53.584;9.968;2024-03-02T12:11:47;11.80;;;10.80;;
938;SDS011;456;53.584;9.968;2024-03-02T12:14:13;11.77;;;10.60;;
938;SDS011;456;53.584;9.968;2024-03-02T12:16:38;12.90;;;11.60;;
938;SDS011;456;53.584;9.968;2024-03-02T12:19:08;12.17;;;11.07;;
938;SDS011;456;53.584;9.968;2024-03-02T12:21:33;11.80;;;10.70;;
938;SDS011;456;53.584;9.968;2024-03-02T12:23:59;11.63;;;10.43;;
938;SDS011;456;53.584;9.968;2024-03-02T12:26:25;11.67;;;10.67;;
938;SDS011;456;53.584;9.968;2024-03-02T12:28:51;11.90;;;10.80;;
938;SDS011;456;53.584;9.968;2024-03-02T12:31:17;12.20;;;10.87;;
938;SDS011;456;53.584;9.968;2024-03-02T12:33:42;11.73;;;10.73;;
938;SDS011;456;53.584;9.968;2024-03-02T12:36:11;11.50;;;10.40;;
938;SDS011;456;53.584;9.968;2024-03-02T12:38:42;11.33;;;10.33;;
938;SDS011;456;53.584;9.968;2024-03-02T12:41:08;11.93;;;10.73;;
938;SDS011;456;53.584;9.968;2024-03-02T12:43:34;10.97;;;9.87;;
938;SDS011;456;53.584;9.968;2024-03-02T12:46:00;10.50;;;9.50;;
938;SDS011;456;53.584;9.968;2024-03-02T12:48:25;11.50;;;10.40;;
938;SDS011;456;53.584;9.968;2024-03-02T12:50:51;12.10;;;11.00;;
938;SDS011;456;53.584;9.968;2024-03-02T12:53:17;9.70;;;8.90;;
938;SDS011;456;53.584;9.968;2024-03-02T12:55:43;10.97;;;9.97;;
938;SDS011;456;53.584;9.968;2024-03-02T12:58:16;10.43;;;9.43;;
938;SDS011;456;53.584;9.968;2024-03-02T13:00:46;9.97;;;9.10;;
938;SDS011;456;53.584;9.968;2024-03-02T13:03:12;9.63;;;8.77;;
938;SDS011;456;53.584;9.968;2024-03-02T13:05:38;9.73;;;8.93;;
938;SDS011;456;53.584;9.968;2024-03-02T13:08:05;10.00;;;9.10;;
938;SDS011;456;53.584;9.968;2024-03-02T13:10:32;9.27;;;8.37;;
938;SDS011;456;53.584;9.968;2024-03-02T13:12:58;9.30;;;8.40;;
938;SDS011;456;53.584;9.968;2024-03-02T13:15:25;9.07;;;8.27;;
938;SDS011;456;53.584;9.968;2024-03-02T13:17:52;9.40;;;8.60;;
938;SDS011;456;53.584;9.968;2024-03-02T13:20:17;9.47;;;8.57;;
938;SDS011;456;53.584;9.968;2024-03-02T13:22:44;8.60;;;7.83;;
938;SDS011;456;53.584;9.968;2024-03-02T13:25:09;8.60;;;7.87;;
938;SDS011;456;53.584;9.968;2024-03-02T13:27:35;8.77;;;7.97;;
938;SDS011;456;53.584;9.968;2024-03-02T13:30:02;8.27;;;7.47;;
938;SDS011;456;53.584;9.968;2024-03-02T13:32:28;8.17;;;7.40;;
938;SDS011;456;53.584;9.968;2024-03-02T13:34:54;9.20;;;8.33;;
938;SDS011;456;53.584;9.968;2024-03-02T13:37:20;7.93;;;7.10;;
938;SDS011;456;53.584;9.968;2024-03-02T13:39:46;8.40;;;7.70;;
938;SDS011;456;53.584;9.968;2024-03-02T13:42:12;7.20;;;6.60;;
938;SDS011;456;53.584;9.968;2024-03-02T13:44:40;8.90;;;7.23;;
938;SDS011;456;53.584;9.968;2024-03-02T13:47:06;7.90;;;7.20;;
938;SDS011;456;53.584;9.968;2024-03-02T13:49:32;7.67;;;7.00;;
938;SDS011;456;53.584;9.968;2024-03-02T13:52:07;8.83;;;8.03;;
938;SDS011;456;53.584;9.968;2024-03-02T13:54:42;6.80;;;6.20;;
938;SDS011;456;53.584;9.968;2024-03-02T13:57:10;7.43;;;6.80;;
938;SDS011;456;53.584;9.968;2024-03-02T13:59:36;6.17;;;5.67;;
938;SDS011;456;53.584;9.968;2024-03-02T14:02:02;7.30;;;6.70;;
938;SDS011;456;53.584;9.968;2024-03-02T14:04:30;7.20;;;6.60;;
938;SDS011;456;53.584;9.968;2024-03-02T14:06:56;7.23;;;6.53;;
938;SDS011;456;53.584;9.968;2024-03-02T14:09:22;6.93;;;6.30;;
938;SDS011;456;53.584;9.968;2024-03-02T14:11:49;6.30;;;5.70;;
938;SDS011;456;53.584;9.968;2024-03-02T14:14:16;7.90;;;7.17;;
938;SDS011;456;53.584;9.968;2024-03-02T14:16:41;6.80;;;6.20;;
938;SDS011;456;53.584;9.968;2024-03-02T14:19:07;6.90;;;6.20;;
938;SDS011;456;53.584;9.968;2024-03-02T14:21:34;7.77;;;7.07;;
938;SDS011;456;53.584;9.968;2024-03-02T14:24:01;5.83;;;5.33;;
938;SDS011;456;53.584;9.968;2024-03-02T14:26:26;5.80;;;5.30;;
938;SDS011;456;53.584;9.968;2024-03-02T14:28:53;7.10;;;6.40;;
938;SDS011;456;53.584;9.968;2024-03-02T14:31:19;6.17;;;5.57;;
938;SDS011;456;53.584;9.968;2024-03-02T14:33:45;6.10;;;5.60;;
938;SDS011;456;53.584;9.968;2024-03-02T14:36:11;6.37;;;5.77;;
938;SDS011;456;53.584;9.968;2024-03-02T14:38:37;6.03;;;5.43;;
938;SDS011;456;53.584;9.968;2024-03-02T14:41:04;6.13;;;5.63;;
938;SDS011;456;53.584;9.968;2024-03-02T14:43:29;5.90;;;5.40;;
938;SDS011;456;53.584;9.968;2024-03-02T14:45:55;6.67;;;6.07;;
938;SDS011;456;53.584;9.968;2024-03-02T14:48:21;6.00;;;5.50;;
938;SDS011;456;53.584;9.968;2024-03-02T14:50:47;5.67;;;5.17;;
938;SDS011;456;53.584;9.968;2024-03-02T14:53:13;6.13;;;5.53;;
938;SDS011;456;53.584;9.968;2024-03-02T14:55:39;5.70;;;5.20;;
938;SDS011;456;53.584;9.968;2024-03-02T14:58:04;5.27;;;4.77;;
938;SDS011;456;53.584;9.968;2024-03-02T15:00:30;6.03;;;5.53;;
938;SDS011;456;53.584;9.968;2024-03-02T15:02:55;5.30;;;4.83;;
938;SDS011;456;53.584;9.968;2024-03-02T15:05:21;5.10;;;4.60;;
938;SDS011;456;53.584;9.968;2024-03-02T15:07:47;5.97;;;5.37;;
938;SDS011;456;53.584;9.968;2024-03-02T15:10:12;5.10;;;4.70;;
938;SDS011;456;53.584;9.968;2024-03-02T15:12:38;4.87;;;4.47;;
938;SDS011;456;53.584;9.968;2024-03-02T15:15:04;5.53;;;5.03;;
938;SDS011;456;53.584;9.968;2024-03-02T15:17:29;6.10;;;5.50;;
938;SDS011;456;53.584;9.968;2024-03-02T15:19:55;5.63;;;5.10;;
938;SDS011;456;53.584;9.968;2024-03-02T15:22:21;5.70;;;5.20;;
938;SDS011;456;53.584;9.968;2024-03-02T15:24:46;5.17;;;4.77;;
938;SDS011;456;53.584;9.968;2024-03-02T15:27:12;5.40;;;4.90;;
938;SDS011;456;53.584;9.968;2024-03-02T15:29:38;4.87;;;4.47;;
938;SDS011;456;53.584;9.968;2024-03-02T15:32:04;4.57;;;4.20;;
938;SDS011;456;53.584;9.968;2024-03-02T15:34:31;5.10;;;4.70;;
938;SDS011;456;53.584;9.968;2024-03-02T15:36:58;5.10;;;4.67;;
938;SDS011;456;53.584;9.968;2024-03-02T15:39:24;4.20;;;3.90;;
938;SDS011;456;53.584;9.968;2024-03-02T15:41:50;6.10;;;4.27;;
938;SDS011;456;53.584;9.968;2024-03-02T15:44:15;4.23;;;3.93;;
938;SDS011;456;53.584;9.968;2024-03-02T15:46:41;3.93;;;3.63;;
938;SDS011;456;53.584;9.968;2024-03-02T15:49:07;4.73;;;4.20;;